sensor_id;sensor_type;location;lat;lon;timestamp;P1;durP1;ratioP1;P2;durP2;ratioP2
54923;SDS011;40825;52.270;20.984;2023-02-11T00:01:31;41.20;;;15.30;;
54923;SDS011;40825;52.270;20.984;2023-02-11T00:04:00;39.30;;;17.00;;
54923;SDS011;40825;52.270;20.984;2023-02-11T00:06:27;32.70;;;15.60;;
54923;SDS011;40825;52.270;20.984;2023-02-11T00:08:54;36.90;;;15.80;;
54923;SDS011;40825;52.270;20.984;2023-02-11T00:11:21;33.60;;;13.90;;
54923;SDS011;40825;52.270;20.984;2023-02-11T00:13:49;38.60;;;14.80;;
54923;SDS011;40825;52.270;20.984;2023-02-11T00:16:16;33.60;;;14.30;;
54923;SDS011;40825;52.270;20.984;2023-02-11T00:18:44;35.20;;;16.80;;
54923;SDS011;40825;52.270;20.984;2023-02-11T00:21:14;31.90;;;13.50;;
54923;SDS011;40825;52.270;20.984;2023-02-11T00:23:41;32.20;;;12.90;;
54923;SDS011;40825;52.270;20.984;2023-02-11T00:26:27;31.00;;;13.50;;
54923;SDS011;40825;52.270;20.984;2023-02-11T00:28:55;27.30;;;12.10;;
54923;SDS011;40825;52.270;20.984;2023-02-11T00:31:21;28.00;;;11.00;;
54923;SDS011;40825;52.270;20.984;2023-02-11T00:33:48;25.50;;;10.70;;
54923;SDS011;40825;52.270;20.984;2023-02-11T00:36:15;29.20;;;12.20;;
54923;SDS011;40825;52.270;20.984;2023-02-11T00:38:46;26.20;;;10.70;;
54923;SDS011;40825;52.270;20.984;2023-02-11T00:41:14;26.40;;;11.30;;
54923;SDS011;40825;52.270;20.984;2023-02-11T00:43:40;28.70;;;11.10;;
54923;SDS011;40825;52.270;20.984;2023-02-11T00:46:06;25.10;;;10.40;;
54923;SDS011;40825;52.270;20.984;2023-02-11T00:48:33;26.40;;;10.10;;
54923;SDS011;40825;52.270;20.984;2023-02-11T00:50:58;26.20;;;10.00;;
54923;SDS011;40825;52.270;20.984;2023-02-11T00:53:25;29.80;;;10.10;;
54923;SDS011;40825;52.270;20.984;2023-02-11T00:55:50;24.80;;;9.80;;
54923;SDS011;40825;52.270;20.984;2023-02-11T00:58:16;26.20;;;10.60;;
54923;SDS011;40825;52.270;20.984;2023-02-11T01:00:42;25.30;;;10.80;;
54923;SDS011;40825;52.270;20.984;2023-02-11T01:03:08;27.90;;;9.90;;
54923;SDS011;40825;52.270;20.984;2023-02-11T01:05:33;23.30;;;10.70;;
54923;SDS011;40825;52.270;20.984;2023-02-11T01:07:59;28.20;;;11.60;;
54923;SDS011;40825;52.270;20.984;2023-02-11T01:10:25;26.10;;;10.80;;
54923;SDS011;40825;52.270;20.984;2023-02-11T01:12:50;22.00;;;10.60;;
54923;SDS011;40825;52.270;20.984;2023-02-11T01:15:17;26.20;;;10.40;;
54923;SDS011;40825;52.270;20.984;2023-02-11T01:17:44;27.30;;;10.30;;
54923;SDS011;40825;52.270;20.984;2023-02-11T01:20:14;26.00;;;9.90;;
54923;SDS011;40825;52.270;20.984;2023-02-11T01:22:48;23.70;;;10.00;;
54923;SDS011;40825;52.270;20.984;2023-02-11T01:25:13;30.60;;;11.60;;
54923;SDS011;40825;52.270;20.984;2023-02-11T01:27:39;28.40;;;11.40;;
54923;SDS011;40825;52.270;20.984;2023-02-11T01:30:05;25.10;;;10.80;;
54923;SDS011;40825;52.270;20.984;2023-02-11T01:32:33;29.30;;;11.70;;
54923;SDS011;40825;52.270;20.984;2023-02-11T01:34:59;26.00;;;10.40;;
54923;SDS011;40825;52.270;20.984;2023-02-11T01:37:25;25.90;;;11.10;;
54923;SDS011;40825;52.270;20.984;2023-02-11T01:39:50;29.60;;;10.90;;
54923;SDS011;40825;52.270;20.984;2023-02-11T01:42:17;24.60;;;9.60;;
54923;SDS011;40825;52.270;20.984;2023-02-11T01:47:13;20.80;;;9.20;;
54923;SDS011;40825;52.270;20.984;2023-02-11T01:49:41;27.40;;;11.80;;
54923;SDS011;40825;52.270;20.984;2023-02-11T01:54:52;26.00;;;10.50;;
54923;SDS011;40825;52.270;20.984;2023-02-11T01:57:41;25.00;;;9.00;;
54923;SDS011;40825;52.270;20.984;2023-02-11T02:00:12;26.30;;;10.70;;
54923;SDS011;40825;52.270;20.984;2023-02-11T02:10:39;26.40;;;10.70;;
54923;SDS011;40825;52.270;20.984;2023-02-11T02:13:11;29.00;;;11.30;;
54923;SDS011;40825;52.270;20.984;2023-02-11T02:15:38;28.60;;;11.60;;
54923;SDS011;40825;52.270;20.984;2023-02-11T02:18:08;27.20;;;10.10;;
54923;SDS011;40825;52.270;20.984;2023-02-11T02:40:24;22.90;;;9.10;;
54923;SDS011;40825;52.270;20.984;2023-02-11T02:42:55;27.60;;;10.80;;
54923;SDS011;40825;52.270;20.984;2023-02-11T02:45:23;28.80;;;11.30;;
54923;SDS011;40825;52.270;20.984;2023-02-11T02:47:48;25.30;;;10.50;;
54923;SDS011;40825;52.270;20.984;2023-02-11T02:50:14;28.20;;;11.00;;
54923;SDS011;40825;52.270;20.984;2023-02-11T02:55:37;23.70;;;9.00;;
54923;SDS011;40825;52.270;20.984;2023-02-11T03:01:37;22.50;;;9.40;;
54923;SDS011;40825;52.270;20.984;2023-02-11T03:09:44;23.80;;;9.70;;
54923;SDS011;40825;52.270;20.984;2023-02-11T03:12:15;23.70;;;9.40;;
54923;SDS011;40825;52.270;20.984;2023-02-11T03:14:42;25.70;;;10.30;;
54923;SDS011;40825;52.270;20.984;2023-02-11T03:17:09;25.20;;;9.90;;
54923;SDS011;40825;52.270;20.984;2023-02-11T03:19:41;24.20;;;9.00;;
54923;SDS011;40825;52.270;20.984;2023-02-11T03:22:20;24.70;;;9.60;;
54923;SDS011;40825;52.270;20.984;2023-02-11T03:24:50;22.70;;;8.90;;
54923;SDS011;40825;52.270;20.984;2023-02-11T03:30:23;20.90;;;9.00;;
54923;SDS011;40825;52.270;20.984;2023-02-11T03:32:56;22.10;;;9.90;;
54923;SDS011;40825;52.270;20.984;2023-02-11T03:35:41;25.90;;;10.10;;
54923;SDS011;40825;52.270;20.984;2023-02-11T03:38:14;22.90;;;9.70;;
54923;SDS011;40825;52.270;20.984;2023-02-11T03:40:44;25.40;;;9.50;;
54923;SDS011;40825;52.270;20.984;2023-02-11T03:43:19;21.80;;;9.10;;
54923;SDS011;40825;52.270;20.984;2023-02-11T03:45:50;24.80;;;10.00;;
54923;SDS011;40825;52.270;20.984;2023-02-11T03:50:49;22.50;;;9.70;;
54923;SDS011;40825;52.270;20.984;2023-02-11T03:53:18;22.00;;;8.50;;
54923;SDS011;40825;52.270;20.984;2023-02-11T03:55:45;29.40;;;9.40;;
54923;SDS011;40825;52.270;20.984;2023-02-11T03:58:13;21.60;;;9.50;;
54923;SDS011;40825;52.270;20.984;2023-02-11T04:00:40;25.80;;;10.10;;
54923;SDS011;40825;52.270;20.984;2023-02-11T04:03:07;26.90;;;10.60;;
54923;SDS011;40825;52.270;20.984;2023-02-11T04:05:33;18.40;;;9.00;;
54923;SDS011;40825;52.270;20.984;2023-02-11T04:07:59;22.80;;;10.20;;
54923;SDS011;40825;52.270;20.984;2023-02-11T04:10:24;26.60;;;10.30;;
54923;SDS011;40825;52.270;20.984;2023-02-11T04:12:50;24.10;;;9.90;;
54923;SDS011;40825;52.270;20.984;2023-02-11T04:15:16;25.40;;;10.20;;
54923;SDS011;40825;52.270;20.984;2023-02-11T04:17:42;27.20;;;10.30;;
54923;SDS011;40825;52.270;20.984;2023-02-11T04:20:08;27.50;;;11.20;;
54923;SDS011;40825;52.270;20.984;2023-02-11T04:22:34;29.40;;;9.40;;
54923;SDS011;40825;52.270;20.984;2023-02-11T04:25:00;24.00;;;10.00;;
54923;SDS011;40825;52.270;20.984;2023-02-11T04:27:26;25.20;;;11.30;;
54923;SDS011;40825;52.270;20.984;2023-02-11T04:29:51;31.00;;;11.50;;
54923;SDS011;40825;52.270;20.984;2023-02-11T04:32:18;25.50;;;11.10;;
54923;SDS011;40825;52.270;20.984;2023-02-11T04:34:43;28.40;;;11.90;;
54923;SDS011;40825;52.270;20.984;2023-02-11T04:37:09;27.40;;;11.10;;
54923;SDS011;40825;52.270;20.984;2023-02-11T04:39:35;31.70;;;13.90;;
54923;SDS011;40825;52.270;20.984;2023-02-11T04:42:00;27.00;;;12.10;;
54923;SDS011;40825;52.270;20.984;2023-02-11T04:44:26;25.70;;;11.90;;
54923;SDS011;40825;52.270;20.984;2023-02-11T04:46:51;28.90;;;11.60;;
54923;SDS011;40825;52.270;20.984;2023-02-11T04:49:18;32.20;;;12.30;;
54923;SDS011;40825;52.270;20.984;2023-02-11T04:51:44;28.70;;;13.50;;
54923;SDS011;40825;52.270;20.984;2023-02-11T04:54:10;27.50;;;11.90;;
54923;SDS011;40825;52.270;20.984;2023-02-11T04:56:36;29.80;;;12.70;;
54923;SDS011;40825;52.270;20.984;2023-02-11T04:59:02;27.10;;;11.80;;
54923;SDS011;40825;52.270;20.984;2023-02-11T05:01:28;25.50;;;12.10;;
54923;SDS011;40825;52.270;20.984;2023-02-11T05:03:55;27.00;;;12.40;;
54923;SDS011;40825;52.270;20.984;2023-02-11T05:06:20;27.90;;;12.70;;
54923;SDS011;40825;52.270;20.984;2023-02-11T05:08:46;29.40;;;12.80;;
54923;SDS011;40825;52.270;20.984;2023-02-11T05:11:15;28.20;;;12.50;;
54923;SDS011;40825;52.270;20.984;2023-02-11T05:13:45;30.00;;;13.00;;
54923;SDS011;40825;52.270;20.984;2023-02-11T05:16:11;32.40;;;13.80;;
54923;SDS011;40825;52.270;20.984;2023-02-11T05:18:38;30.80;;;13.50;;
54923;SDS011;40825;52.270;20.984;2023-02-11T05:21:08;34.70;;;13.50;;
54923;SDS011;40825;52.270;20.984;2023-02-11T05:23:36;29.10;;;12.40;;
54923;SDS011;40825;52.270;20.984;2023-02-11T05:26:03;25.30;;;11.90;;
54923;SDS011;40825;52.270;20.984;2023-02-11T05:28:29;28.30;;;11.90;;
54923;SDS011;40825;52.270;20.984;2023-02-11T05:30:55;28.10;;;11.60;;
54923;SDS011;40825;52.270;20.984;2023-02-11T05:33:22;34.40;;;13.00;;
54923;SDS011;40825;52.270;20.984;2023-02-11T05:35:48;30.60;;;11.50;;
54923;SDS011;40825;52.270;20.984;2023-02-11T05:38:13;29.70;;;13.20;;
54923;SDS011;40825;52.270;20.984;2023-02-11T05:40:39;32.40;;;14.20;;
54923;SDS011;40825;52.270;20.984;2023-02-11T05:43:04;31.40;;;14.20;;
54923;SDS011;40825;52.270;20.984;2023-02-11T05:45:30;30.50;;;11.90;;
54923;SDS011;40825;52.270;20.984;2023-02-11T05:47:56;30.70;;;14.00;;
54923;SDS011;40825;52.270;20.984;2023-02-11T05:50:22;28.90;;;13.30;;
54923;SDS011;40825;52.270;20.984;2023-02-11T05:52:48;29.20;;;13.70;;
54923;SDS011;40825;52.270;20.984;2023-02-11T05:55:13;33.90;;;13.40;;
54923;SDS011;40825;52.270;20.984;2023-02-11T05:57:39;33.10;;;13.70;;
54923;SDS011;40825;52.270;20.984;2023-02-11T06:00:05;33.50;;;13.70;;
54923;SDS011;40825;52.270;20.984;2023-02-11T06:02:30;29.10;;;13.00;;
54923;SDS011;40825;52.270;20.984;2023-02-11T06:04:56;28.60;;;11.70;;
54923;SDS011;40825;52.270;20.984;2023-02-11T06:07:22;32.60;;;14.10;;
54923;SDS011;40825;52.270;20.984;2023-02-11T06:09:47;30.40;;;12.50;;
54923;SDS011;40825;52.270;20.984;2023-02-11T06:12:13;31.90;;;14.20;;
54923;SDS011;40825;52.270;20.984;2023-02-11T06:14:39;29.90;;;13.20;;
54923;SDS011;40825;52.270;20.984;2023-02-11T06:17:04;33.50;;;13.00;;
54923;SDS011;40825;52.270;20.984;2023-02-11T06:19:30;31.20;;;14.00;;
54923;SDS011;40825;52.270;20.984;2023-02-11T06:21:56;29.30;;;12.00;;
54923;SDS011;40825;52.270;20.984;2023-02-11T06:24:22;28.00;;;13.20;;
54923;SDS011;40825;52.270;20.984;2023-02-11T06:26:48;29.10;;;13.20;;
54923;SDS011;40825;52.270;20.984;2023-02-11T06:29:13;30.70;;;13.10;;
54923;SDS011;40825;52.270;20.984;2023-02-11T06:31:39;33.50;;;14.40;;
54923;SDS011;40825;52.270;20.984;2023-02-11T06:34:06;32.60;;;15.50;;
54923;SDS011;40825;52.270;20.984;2023-02-11T06:36:32;29.50;;;13.30;;
54923;SDS011;40825;52.270;20.984;2023-02-11T06:38:58;29.00;;;14.70;;
54923;SDS011;40825;52.270;20.984;2023-02-11T06:41:23;29.90;;;14.10;;
54923;SDS011;40825;52.270;20.984;2023-02-11T06:43:50;32.10;;;14.50;;
54923;SDS011;40825;52.270;20.984;2023-02-11T06:46:17;26.20;;;12.60;;
54923;SDS011;40825;52.270;20.984;2023-02-11T06:48:43;31.10;;;13.70;;
54923;SDS011;40825;52.270;20.984;2023-02-11T06:51:09;35.10;;;14.10;;
54923;SDS011;40825;52.270;20.984;2023-02-11T06:53:38;38.50;;;14.90;;
54923;SDS011;40825;52.270;20.984;2023-02-11T06:56:07;34.10;;;13.90;;
54923;SDS011;40825;52.270;20.984;2023-02-11T06:58:35;33.70;;;14.80;;
54923;SDS011;40825;52.270;20.984;2023-02-11T07:01:12;35.80;;;15.00;;
54923;SDS011;40825;52.270;20.984;2023-02-11T07:03:40;33.70;;;16.90;;
54923;SDS011;40825;52.270;20.984;2023-02-11T07:06:07;31.20;;;15.20;;
54923;SDS011;40825;52.270;20.984;2023-02-11T07:08:37;37.20;;;15.60;;
54923;SDS011;40825;52.270;20.984;2023-02-11T07:11:10;31.50;;;13.50;;
54923;SDS011;40825;52.270;20.984;2023-02-11T07:13:37;31.20;;;15.90;;
54923;SDS011;40825;52.270;20.984;2023-02-11T07:16:05;35.00;;;14.20;;
54923;SDS011;40825;52.270;20.984;2023-02-11T07:18:32;33.00;;;16.00;;
54923;SDS011;40825;52.270;20.984;2023-02-11T07:20:58;36.70;;;15.30;;
54923;SDS011;40825;52.270;20.984;2023-02-11T07:23:24;41.60;;;18.00;;
54923;SDS011;40825;52.270;20.984;2023-02-11T07:25:50;36.70;;;16.40;;
54923;SDS011;40825;52.270;20.984;2023-02-11T07:28:15;33.00;;;16.70;;
54923;SDS011;40825;52.270;20.984;2023-02-11T07:30:41;35.50;;;16.60;;
54923;SDS011;40825;52.270;20.984;2023-02-11T07:33:06;34.60;;;14.60;;
54923;SDS011;40825;52.270;20.984;2023-02-11T07:35:31;39.30;;;16.70;;
54923;SDS011;40825;52.270;20.984;2023-02-11T07:37:57;37.20;;;16.90;;
54923;SDS011;40825;52.270;20.984;2023-02-11T07:40:22;41.00;;;18.20;;
54923;SDS011;40825;52.270;20.984;2023-02-11T07:42:48;39.70;;;18.60;;
54923;SDS011;40825;52.270;20.984;2023-02-11T07:45:13;36.50;;;16.00;;
54923;SDS011;40825;52.270;20.984;2023-02-11T07:47:39;39.20;;;17.30;;
54923;SDS011;40825;52.270;20.984;2023-02-11T07:50:07;37.10;;;16.80;;
54923;SDS011;40825;52.270;20.984;2023-02-11T07:52:33;41.30;;;18.00;;
54923;SDS011;40825;52.270;20.984;2023-02-11T07:54:59;40.10;;;18.10;;
54923;SDS011;40825;52.270;20.984;2023-02-11T07:57:24;46.80;;;18.60;;
54923;SDS011;40825;52.270;20.984;2023-02-11T07:59:50;44.90;;;18.90;;
54923;SDS011;40825;52.270;20.984;2023-02-11T08:02:16;42.20;;;17.90;;
54923;SDS011;40825;52.270;20.984;2023-02-11T08:04:44;45.60;;;17.00;;
54923;SDS011;40825;52.270;20.984;2023-02-11T08:07:13;39.40;;;17.50;;
54923;SDS011;40825;52.270;20.984;2023-02-11T08:12:04;44.60;;;19.40;;
54923;SDS011;40825;52.270;20.984;2023-02-11T08:14:30;45.30;;;19.80;;
54923;SDS011;40825;52.270;20.984;2023-02-11T08:16:57;39.40;;;18.80;;
54923;SDS011;40825;52.270;20.984;2023-02-11T08:19:22;41.70;;;18.70;;
54923;SDS011;40825;52.270;20.984;2023-02-11T08:21:48;42.80;;;18.50;;
54923;SDS011;40825;52.270;20.984;2023-02-11T08:24:14;44.90;;;19.40;;
54923;SDS011;40825;52.270;20.984;2023-02-11T08:26:40;46.70;;;20.10;;
54923;SDS011;40825;52.270;20.984;2023-02-11T08:29:07;42.10;;;19.60;;
54923;SDS011;40825;52.270;20.984;2023-02-11T08:31:36;40.50;;;18.80;;
54923;SDS011;40825;52.270;20.984;2023-02-11T08:34:04;45.90;;;20.10;;
54923;SDS011;40825;52.270;20.984;2023-02-11T08:36:32;44.10;;;20.50;;
54923;SDS011;40825;52.270;20.984;2023-02-11T08:43:53;43.90;;;18.70;;
54923;SDS011;40825;52.270;20.984;2023-02-11T08:46:19;40.80;;;17.50;;
54923;SDS011;40825;52.270;20.984;2023-02-11T08:48:45;40.70;;;18.50;;
54923;SDS011;40825;52.270;20.984;2023-02-11T08:51:13;45.80;;;18.40;;
54923;SDS011;40825;52.270;20.984;2023-02-11T08:53:44;38.20;;;17.40;;
54923;SDS011;40825;52.270;20.984;2023-02-11T08:56:10;43.70;;;20.40;;
54923;SDS011;40825;52.270;20.984;2023-02-11T08:58:37;45.30;;;19.10;;
54923;SDS011;40825;52.270;20.984;2023-02-11T09:03:58;47.90;;;19.30;;
54923;SDS011;40825;52.270;20.984;2023-02-11T09:06:25;42.40;;;19.20;;
54923;SDS011;40825;52.270;20.984;2023-02-11T09:08:53;46.60;;;20.40;;
54923;SDS011;40825;52.270;20.984;2023-02-11T09:11:21;39.50;;;19.10;;
54923;SDS011;40825;52.270;20.984;2023-02-11T09:13:52;44.80;;;19.50;;
54923;SDS011;40825;52.270;20.984;2023-02-11T09:16:19;41.60;;;18.80;;
54923;SDS011;40825;52.270;20.984;2023-02-11T09:18:47;40.00;;;17.40;;
54923;SDS011;40825;52.270;20.984;2023-02-11T09:21:13;39.50;;;17.10;;
54923;SDS011;40825;52.270;20.984;2023-02-11T09:23:40;37.10;;;16.50;;
54923;SDS011;40825;52.270;20.984;2023-02-11T09:26:19;42.80;;;20.00;;
54923;SDS011;40825;52.270;20.984;2023-02-11T09:28:46;39.60;;;19.10;;
54923;SDS011;40825;52.270;20.984;2023-02-11T09:31:16;41.80;;;17.90;;
54923;SDS011;40825;52.270;20.984;2023-02-11T09:33:44;42.70;;;19.60;;
54923;SDS011;40825;52.270;20.984;2023-02-11T09:36:19;39.40;;;18.70;;
54923;SDS011;40825;52.270;20.984;2023-02-11T09:38:46;41.10;;;18.40;;
54923;SDS011;40825;52.270;20.984;2023-02-11T09:43:47;41.80;;;19.10;;
54923;SDS011;40825;52.270;20.984;2023-02-11T09:46:17;41.90;;;18.20;;
54923;SDS011;40825;52.270;20.984;2023-02-11T09:48:48;46.40;;;20.00;;
54923;SDS011;40825;52.270;20.984;2023-02-11T09:51:18;46.50;;;19.70;;
54923;SDS011;40825;52.270;20.984;2023-02-11T09:56:25;43.90;;;18.50;;
54923;SDS011;40825;52.270;20.984;2023-02-11T09:58:52;40.40;;;19.00;;
54923;SDS011;40825;52.270;20.984;2023-02-11T10:06:56;41.10;;;18.40;;
54923;SDS011;40825;52.270;20.984;2023-02-11T10:17:57;44.90;;;19.80;;
54923;SDS011;40825;52.270;20.984;2023-02-11T10:20:38;47.90;;;20.10;;
54923;SDS011;40825;52.270;20.984;2023-02-11T10:25:53;46.20;;;19.90;;
54923;SDS011;40825;52.270;20.984;2023-02-11T10:28:43;46.70;;;19.80;;
54923;SDS011;40825;52.270;20.984;2023-02-11T10:31:12;45.90;;;20.70;;
54923;SDS011;40825;52.270;20.984;2023-02-11T10:33:46;48.50;;;21.60;;
54923;SDS011;40825;52.270;20.984;2023-02-11T10:36:30;45.00;;;18.90;;
54923;SDS011;40825;52.270;20.984;2023-02-11T10:38:59;46.30;;;19.60;;
54923;SDS011;40825;52.270;20.984;2023-02-11T10:41:33;45.40;;;19.00;;
54923;SDS011;40825;52.270;20.984;2023-02-11T10:44:00;45.00;;;18.70;;
54923;SDS011;40825;52.270;20.984;2023-02-11T10:46:28;45.60;;;20.10;;
54923;SDS011;40825;52.270;20.984;2023-02-11T10:48:57;48.80;;;21.20;;
54923;SDS011;40825;52.270;20.984;2023-02-11T10:53:49;44.60;;;21.10;;
54923;SDS011;40825;52.270;20.984;2023-02-11T10:56:45;48.80;;;21.50;;
54923;SDS011;40825;52.270;20.984;2023-02-11T10:59:20;46.30;;;20.70;;
54923;SDS011;40825;52.270;20.984;2023-02-11T11:06:55;53.70;;;21.10;;
54923;SDS011;40825;52.270;20.984;2023-02-11T11:09:29;48.20;;;20.70;;
54923;SDS011;40825;52.270;20.984;2023-02-11T11:12:20;52.10;;;21.40;;
54923;SDS011;40825;52.270;20.984;2023-02-11T11:14:58;53.00;;;20.60;;
54923;SDS011;40825;52.270;20.984;2023-02-11T11:17:46;47.60;;;21.60;;
54923;SDS011;40825;52.270;20.984;2023-02-11T11:22:44;53.70;;;22.80;;
54923;SDS011;40825;52.270;20.984;2023-02-11T11:27:52;56.60;;;24.80;;
54923;SDS011;40825;52.270;20.984;2023-02-11T11:30:20;55.90;;;24.40;;
54923;SDS011;40825;52.270;20.984;2023-02-11T11:32:49;53.30;;;22.00;;
54923;SDS011;40825;52.270;20.984;2023-02-11T11:35:33;60.70;;;24.30;;
54923;SDS011;40825;52.270;20.984;2023-02-11T11:37:59;55.00;;;21.50;;
54923;SDS011;40825;52.270;20.984;2023-02-11T11:43:02;61.30;;;24.00;;
54923;SDS011;40825;52.270;20.984;2023-02-11T11:45:28;60.20;;;21.30;;
54923;SDS011;40825;52.270;20.984;2023-02-11T11:50:36;55.10;;;23.90;;
54923;SDS011;40825;52.270;20.984;2023-02-11T11:53:09;61.10;;;24.50;;
54923;SDS011;40825;52.270;20.984;2023-02-11T11:55:47;57.70;;;24.10;;
54923;SDS011;40825;52.270;20.984;2023-02-11T11:58:21;61.60;;;24.10;;
54923;SDS011;40825;52.270;20.984;2023-02-11T12:03:37;65.40;;;27.50;;
54923;SDS011;40825;52.270;20.984;2023-02-11T12:37:01;56.40;;;24.40;;
54923;SDS011;40825;52.270;20.984;2023-02-11T12:39:50;55.20;;;25.60;;
54923;SDS011;40825;52.270;20.984;2023-02-11T12:50:55;56.00;;;23.30;;
54923;SDS011;40825;52.270;20.984;2023-02-11T12:56:11;53.30;;;22.50;;
54923;SDS011;40825;52.270;20.984;2023-02-11T12:58:57;56.30;;;24.00;;
54923;SDS011;40825;52.270;20.984;2023-02-11T13:01:30;52.00;;;21.80;;
54923;SDS011;40825;52.270;20.984;2023-02-11T13:04:05;54.80;;;23.50;;
54923;SDS011;40825;52.270;20.984;2023-02-11T13:06:50;54.40;;;23.70;;
54923;SDS011;40825;52.270;20.984;2023-02-11T13:09:23;51.30;;;22.00;;
54923;SDS011;40825;52.270;20.984;2023-02-11T13:12:01;52.70;;;23.50;;
54923;SDS011;40825;52.270;20.984;2023-02-11T13:14:48;58.20;;;24.40;;
54923;SDS011;40825;52.270;20.984;2023-02-11T13:17:26;52.90;;;23.50;;
54923;SDS011;40825;52.270;20.984;2023-02-11T13:20:04;52.20;;;22.80;;
54923;SDS011;40825;52.270;20.984;2023-02-11T13:22:48;55.80;;;24.20;;
54923;SDS011;40825;52.270;20.984;2023-02-11T13:28:12;61.20;;;25.70;;
54923;SDS011;40825;52.270;20.984;2023-02-11T13:30:46;57.70;;;23.40;;
54923;SDS011;40825;52.270;20.984;2023-02-11T13:35:43;57.20;;;24.80;;
54923;SDS011;40825;52.270;20.984;2023-02-11T13:38:33;50.60;;;22.90;;
54923;SDS011;40825;52.270;20.984;2023-02-11T13:41:04;57.90;;;25.40;;
54923;SDS011;40825;52.270;20.984;2023-02-11T13:43:35;56.30;;;24.00;;
54923;SDS011;40825;52.270;20.984;2023-02-11T13:46:10;50.70;;;20.30;;
54923;SDS011;40825;52.270;20.984;2023-02-11T13:48:49;54.90;;;22.90;;
54923;SDS011;40825;52.270;20.984;2023-02-11T13:51:18;50.80;;;24.50;;
54923;SDS011;40825;52.270;20.984;2023-02-11T13:54:05;53.00;;;22.50;;
54923;SDS011;40825;52.270;20.984;2023-02-11T13:59:03;58.10;;;24.80;;
54923;SDS011;40825;52.270;20.984;2023-02-11T14:01:43;62.30;;;24.00;;
54923;SDS011;40825;52.270;20.984;2023-02-11T14:05:11;57.60;;;24.80;;
54923;SDS011;40825;52.270;20.984;2023-02-11T14:13:30;62.30;;;25.10;;
54923;SDS011;40825;52.270;20.984;2023-02-11T14:21:31;61.20;;;25.10;;
54923;SDS011;40825;52.270;20.984;2023-02-11T14:29:23;57.80;;;25.50;;
54923;SDS011;40825;52.270;20.984;2023-02-11T14:35:09;57.50;;;24.40;;
54923;SDS011;40825;52.270;20.984;2023-02-11T14:37:55;46.40;;;20.40;;
54923;SDS011;40825;52.270;20.984;2023-02-11T14:42:56;48.90;;;22.20;;
54923;SDS011;40825;52.270;20.984;2023-02-11T14:45:30;52.00;;;24.90;;
54923;SDS011;40825;52.270;20.984;2023-02-11T14:50:40;50.90;;;22.90;;
54923;SDS011;40825;52.270;20.984;2023-02-11T14:53:11;53.10;;;24.20;;
54923;SDS011;40825;52.270;20.984;2023-02-11T14:55:49;49.00;;;21.10;;
54923;SDS011;40825;52.270;20.984;2023-02-11T14:58:20;48.90;;;25.10;;
54923;SDS011;40825;52.270;20.984;2023-02-11T15:06:01;49.40;;;21.20;;
54923;SDS011;40825;52.270;20.984;2023-02-11T15:08:30;40.90;;;18.60;;
54923;SDS011;40825;52.270;20.984;2023-02-11T15:10:59;45.50;;;19.60;;
54923;SDS011;40825;52.270;20.984;2023-02-11T15:13:26;51.00;;;21.10;;
54923;SDS011;40825;52.270;20.984;2023-02-11T15:15:59;47.20;;;22.10;;
54923;SDS011;40825;52.270;20.984;2023-02-11T15:18:32;46.10;;;20.40;;
54923;SDS011;40825;52.270;20.984;2023-02-11T15:21:00;50.40;;;21.70;;
54923;SDS011;40825;52.270;20.984;2023-02-11T15:23:29;44.80;;;20.30;;
54923;SDS011;40825;52.270;20.984;2023-02-11T15:25:55;46.60;;;22.00;;
54923;SDS011;40825;52.270;20.984;2023-02-11T15:28:22;44.80;;;23.30;;
54923;SDS011;40825;52.270;20.984;2023-02-11T15:33:29;45.70;;;20.50;;
54923;SDS011;40825;52.270;20.984;2023-02-11T15:35:57;46.80;;;18.80;;
54923;SDS011;40825;52.270;20.984;2023-02-11T15:38:24;43.70;;;19.30;;
54923;SDS011;40825;52.270;20.984;2023-02-11T15:40:54;43.90;;;19.40;;
54923;SDS011;40825;52.270;20.984;2023-02-11T15:43:22;42.30;;;20.60;;
54923;SDS011;40825;52.270;20.984;2023-02-11T15:45:58;39.10;;;18.10;;
54923;SDS011;40825;52.270;20.984;2023-02-11T15:51:32;41.60;;;18.10;;
54923;SDS011;40825;52.270;20.984;2023-02-11T15:54:43;41.30;;;17.90;;
54923;SDS011;40825;52.270;20.984;2023-02-11T15:56:51;43.90;;;18.70;;
54923;SDS011;40825;52.270;20.984;2023-02-11T15:59:52;41.70;;;18.50;;
54923;SDS011;40825;52.270;20.984;2023-02-11T16:04:51;36.80;;;18.20;;
54923;SDS011;40825;52.270;20.984;2023-02-11T16:10:33;34.00;;;16.30;;
54923;SDS011;40825;52.270;20.984;2023-02-11T16:17:59;31.60;;;14.30;;
54923;SDS011;40825;52.270;20.984;2023-02-11T16:20:28;32.10;;;15.30;;
54923;SDS011;40825;52.270;20.984;2023-02-11T16:22:54;18.00;;;9.90;;
54923;SDS011;40825;52.270;20.984;2023-02-11T16:25:20;28.50;;;13.70;;
54923;SDS011;40825;52.270;20.984;2023-02-11T16:27:47;29.60;;;12.90;;
54923;SDS011;40825;52.270;20.984;2023-02-11T16:30:28;26.10;;;11.80;;
54923;SDS011;40825;52.270;20.984;2023-02-11T16:32:58;27.50;;;11.90;;
54923;SDS011;40825;52.270;20.984;2023-02-11T16:35:23;30.30;;;14.40;;
54923;SDS011;40825;52.270;20.984;2023-02-11T16:37:49;33.60;;;16.10;;
54923;SDS011;40825;52.270;20.984;2023-02-11T16:40:15;30.30;;;14.40;;
54923;SDS011;40825;52.270;20.984;2023-02-11T16:42:40;26.60;;;12.00;;
54923;SDS011;40825;52.270;20.984;2023-02-11T16:45:06;30.30;;;14.60;;
54923;SDS011;40825;52.270;20.984;2023-02-11T16:47:32;33.00;;;14.70;;
54923;SDS011;40825;52.270;20.984;2023-02-11T16:49:59;27.50;;;13.20;;
54923;SDS011;40825;52.270;20.984;2023-02-11T16:52:26;28.40;;;12.80;;
54923;SDS011;40825;52.270;20.984;2023-02-11T16:54:52;30.10;;;15.20;;
54923;SDS011;40825;52.270;20.984;2023-02-11T16:57:19;26.50;;;12.20;;
54923;SDS011;40825;52.270;20.984;2023-02-11T16:59:46;30.10;;;15.50;;
54923;SDS011;40825;52.270;20.984;2023-02-11T17:02:14;27.60;;;13.30;;
54923;SDS011;40825;52.270;20.984;2023-02-11T17:04:43;28.60;;;15.20;;
54923;SDS011;40825;52.270;20.984;2023-02-11T17:07:09;26.60;;;12.70;;
54923;SDS011;40825;52.270;20.984;2023-02-11T17:09:34;29.20;;;13.80;;
54923;SDS011;40825;52.270;20.984;2023-02-11T17:12:00;29.30;;;13.80;;
54923;SDS011;40825;52.270;20.984;2023-02-11T17:14:25;28.10;;;13.10;;
54923;SDS011;40825;52.270;20.984;2023-02-11T17:16:51;24.60;;;11.90;;
54923;SDS011;40825;52.270;20.984;2023-02-11T17:19:17;28.70;;;13.20;;
54923;SDS011;40825;52.270;20.984;2023-02-11T17:21:46;23.20;;;11.30;;
54923;SDS011;40825;52.270;20.984;2023-02-11T17:26:39;26.50;;;12.50;;
54923;SDS011;40825;52.270;20.984;2023-02-11T17:29:07;25.40;;;11.00;;
54923;SDS011;40825;52.270;20.984;2023-02-11T17:34:01;22.50;;;11.90;;
54923;SDS011;40825;52.270;20.984;2023-02-11T17:36:27;20.90;;;9.90;;
54923;SDS011;40825;52.270;20.984;2023-02-11T17:38:55;22.70;;;11.80;;
54923;SDS011;40825;52.270;20.984;2023-02-11T17:41:23;24.30;;;12.10;;
54923;SDS011;40825;52.270;20.984;2023-02-11T17:43:49;21.80;;;10.80;;
54923;SDS011;40825;52.270;20.984;2023-02-11T17:46:14;19.90;;;10.00;;
54923;SDS011;40825;52.270;20.984;2023-02-11T17:48:39;24.90;;;12.20;;